Погода Коупелана 2 недели

Банфора, Буркина-Фасо

24 февраля-08 марта
  • 24февраля
    Сегодня
    +22°
    +37°
    Облачно с прояснениями
    ВремяПогодаТемператураВлажностьДавлениеВетер, м/сВероятность осадков
    00:00Ясно и безоблачно+24°C17 %733 мм2.3 м/с2 %
    03:00Ясно и безоблачно+22°C19 %731 мм2.3 м/с2 %
    06:00Ясно и безоблачно+20°C23 %732 мм2.0 м/с2 %
    09:00Небольшая облачность+29°C18 %735 мм1.8 м/с2 %
    12:00Ясно и безоблачно+36°C16 %733 мм3.3 м/с2 %
    15:00Облачно с прояснениями+37°C18 %731 мм1.2 м/с2 %
    18:00Практически безоблачно+33°C23 %731 мм2.1 м/с2 %
    21:00Ясно и безоблачно+29°C24 %733 мм1.4 м/с2 %
  • 25февраля
    Воскресенье
    +24°
    +38°
    Практически безоблачно
    ВремяПогодаТемператураВлажностьДавлениеВетер, м/сВероятность осадков
    00:00Ясно и безоблачно+25°C30 %733 мм1.7 м/с2 %
    03:00Ясно и безоблачно+23°C26 %732 мм2.3 м/с2 %
    06:00Ясно и безоблачно+23°C25 %733 мм2.0 м/с2 %
    09:00Практически безоблачно+30°C21 %735 мм1.5 м/с2 %
    12:00Облачно с прояснениями+36°C20 %734 мм1.9 м/с2 %
    15:00Практически безоблачно+38°C19 %731 мм1.2 м/с2 %
    18:00Ясно и безоблачно+35°C24 %731 мм1.4 м/с2 %
    21:00Ясно и безоблачно+31°C27 %733 мм0.1 м/с2 %
  • 26февраля
    Понедельник
    +23°
    +38°
    Ясно и безоблачно
    ВремяПогодаТемператураВлажностьДавлениеВетер, м/сВероятность осадков
    00:00Ясно и безоблачно+28°C31 %733 мм2.0 м/с2 %
    03:00Ясно и безоблачно+26°C27 %731 мм2.3 м/с2 %
    06:00Ясно и безоблачно+25°C27 %732 мм2.6 м/с2 %
    09:00Практически безоблачно+31°C16 %735 мм2.4 м/с2 %
    12:00Ясно и безоблачно+37°C9 %733 мм4.6 м/с2 %
    15:00Ясно и безоблачно+38°C11 %731 мм2.4 м/с2 %
    18:00Ясно и безоблачно+34°C19 %731 мм1.6 м/с2 %
    21:00Ясно и безоблачно+29°C21 %732 мм1.2 м/с2 %
  • 27февраля
    Вторник
    +23°
    +39°
    Ясно и безоблачно
    ВремяПогодаТемператураВлажностьДавлениеВетер, м/сВероятность осадков
    00:00Ясно и безоблачно+27°C20 %732 мм1.9 м/с2 %
    03:00Ясно и безоблачно+24°C25 %730 мм2.7 м/с2 %
    06:00Ясно и безоблачно+25°C21 %731 мм3.2 м/с2 %
    09:00Ясно и безоблачно+31°C12 %733 мм3.2 м/с2 %
    12:00Ясно и безоблачно+37°C7 %732 мм4.5 м/с2 %
    15:00Ясно и безоблачно+38°C8 %730 мм2.2 м/с2 %
    18:00Ясно и безоблачно+35°C10 %730 мм1.8 м/с2 %
    21:00Ясно и безоблачно+30°C14 %732 мм2.3 м/с2 %
  • 28февраля
    Среда
    +25°
    +38°
    Ясно и безоблачно
    ВремяПогодаТемператураВлажностьДавлениеВетер, м/сВероятность осадков
    00:00Ясно и безоблачно+27°C17 %732 мм2.1 м/с2 %
    03:00Ясно и безоблачно+25°C18 %730 мм2.6 м/с2 %
    06:00Ясно и безоблачно+24°C21 %731 мм2.4 м/с2 %
    09:00Ясно и безоблачно+30°C13 %733 мм1.6 м/с2 %
    12:00Ясно и безоблачно+37°C7 %732 мм2.3 м/с2 %
    15:00Ясно и безоблачно+38°C8 %729 мм1.3 м/с2 %
    18:00Ясно и безоблачно+34°C11 %729 мм2.4 м/с2 %
    21:00Ясно и безоблачно+32°C11 %731 мм1.3 м/с2 %
Мы используем cookies
Соглашаюсь